Time;durP1;ratioP1;P1;durP2;ratioP2;P2;SDS_P1;SDS_P2;PMS_P1;PMS_P2;Temp;Humidity;BMP_temperature;BMP_pressure;BME280_temperature;BME280_humidity;BME280_pressure;Samples;Min_cycle;Max_cycle;Signal;HPM_P1;HPM_P2
2022/01/05 00:00:33;;;;;;;10.93;2.38;;;;;;;1.88;100.00;99956.91;5257993;28;20055;-71
2022/01/05 00:03:04;;;;;;;12.70;2.38;;;;;;;1.87;100.00;99960.44;5263844;28;20431;-72
2022/01/05 00:05:36;;;;;;;13.05;2.00;;;;;;;1.85;100.00;99959.69;5267180;28;20043;-71
2022/01/05 00:08:07;;;;;;;16.50;2.40;;;;;;;1.79;100.00;99962.66;5267756;28;20402;-71
2022/01/05 00:10:38;;;;;;;11.65;2.38;;;;;;;1.81;100.00;99968.69;5265448;28;20050;-71
2022/01/05 00:13:09;;;;;;;10.98;2.20;;;;;;;1.77;100.00;99969.78;5258486;28;20053;-71
2022/01/05 00:15:41;;;;;;;15.77;2.65;;;;;;;1.75;100.00;99976.91;5276186;28;20021;-71
2022/01/05 00:18:12;;;;;;;13.18;2.10;;;;;;;1.68;100.00;99970.28;5259323;28;20738;-71
2022/01/05 00:20:44;;;;;;;14.23;3.17;;;;;;;1.67;100.00;99979.06;5260363;28;20029;-71
2022/01/05 00:23:15;;;;;;;18.25;2.60;;;;;;;1.60;100.00;99968.06;5269597;28;20074;-71
2022/01/05 00:25:46;;;;;;;12.18;2.20;;;;;;;1.59;100.00;99970.75;5264972;28;20556;-71
2022/01/05 00:28:18;;;;;;;10.15;2.40;;;;;;;1.53;100.00;99971.94;5268369;28;20064;-71
2022/01/05 00:30:50;;;;;;;12.52;2.50;;;;;;;1.52;100.00;99968.47;5262753;28;20025;-71
2022/01/05 00:33:21;;;;;;;11.93;2.13;;;;;;;1.42;100.00;99964.63;5267526;28;20395;-71
2022/01/05 00:35:52;;;;;;;15.98;2.50;;;;;;;1.53;100.00;99969.31;5270935;28;20190;-71
2022/01/05 00:38:23;;;;;;;10.40;2.22;;;;;;;1.39;100.00;99970.03;5272495;28;20038;-71
2022/01/05 00:40:55;;;;;;;14.88;2.50;;;;;;;1.33;100.00;99970.38;5273145;28;20051;-71
2022/01/05 00:43:27;;;;;;;12.18;2.50;;;;;;;1.27;100.00;99970.69;5265427;28;20017;-70
2022/01/05 00:45:58;;;;;;;11.27;2.42;;;;;;;1.25;100.00;99983.06;5258080;28;20032;-71
2022/01/05 00:48:30;;;;;;;12.05;2.33;;;;;;;1.23;100.00;99991.03;5258204;28;20128;-71
2022/01/05 00:51:03;;;;;;;19.75;3.65;;;;;;;1.17;100.00;99986.94;5257035;28;20025;-70
2022/01/05 00:53:34;;;;;;;12.75;2.70;;;;;;;1.16;100.00;99987.84;5260108;28;20075;-71
2022/01/05 00:56:06;;;;;;;16.00;3.33;;;;;;;1.15;100.00;99994.03;5258668;28;20135;-71
2022/01/05 00:58:37;;;;;;;14.38;4.05;;;;;;;1.13;100.00;100005.53;5265115;28;20483;-70
2022/01/05 01:01:08;;;;;;;16.45;3.47;;;;;;;1.11;100.00;100005.66;5260234;28;20024;-71
2022/01/05 01:03:40;;;;;;;16.00;3.42;;;;;;;1.06;100.00;100010.28;5258975;28;20077;-70
2022/01/05 01:06:11;;;;;;;12.50;2.83;;;;;;;1.02;100.00;100016.59;5267202;28;20363;-70
2022/01/05 01:08:42;;;;;;;18.08;3.10;;;;;;;1.02;100.00;100011.34;5265252;28;20036;-70
2022/01/05 01:11:14;;;;;;;14.30;3.60;;;;;;;0.97;100.00;100008.09;5266929;28;20041;-70
2022/01/05 01:13:45;;;;;;;13.30;3.00;;;;;;;0.94;100.00;100006.50;5265006;28;20028;-70
2022/01/05 01:16:18;;;;;;;15.82;3.05;;;;;;;0.94;100.00;100008.25;5259027;28;20456;-71
2022/01/05 01:18:49;;;;;;;16.17;3.17;;;;;;;0.90;100.00;100009.31;5256993;28;20037;-71
2022/01/05 01:21:21;;;;;;;20.88;3.17;;;;;;;0.87;100.00;100020.00;5262580;28;20056;-71
2022/01/05 01:23:55;;;;;;;16.52;3.15;;;;;;;0.85;100.00;100022.69;5268382;28;20500;-71
2022/01/05 01:26:28;;;;;;;;;;;;;;;0.81;100.00;100022.94;5264191;28;20029;-71
2022/01/05 01:28:59;;;;;;;12.88;3.33;;;;;;;0.81;100.00;100026.41;5265734;28;19916;-72
2022/01/05 01:31:31;;;;;;;14.23;3.30;;;;;;;0.82;100.00;100017.59;5256159;28;20037;-71
2022/01/05 01:34:02;;;;;;;15.60;3.97;;;;;;;0.73;100.00;100018.91;5259724;28;20033;-71
2022/01/05 01:36:34;;;;;;;16.38;2.97;;;;;;;0.72;100.00;100021.59;5267418;28;20028;-70
2022/01/05 01:39:05;;;;;;;15.38;2.97;;;;;;;0.68;100.00;100023.53;5267889;28;20136;-70
2022/01/05 01:41:36;;;;;;;12.75;3.03;;;;;;;0.67;100.00;100027.09;5260038;28;20028;-71
2022/01/05 01:44:07;;;;;;;14.95;3.30;;;;;;;0.63;100.00;100020.25;5267871;28;20408;-70
2022/01/05 01:46:39;;;;;;;13.48;3.10;;;;;;;0.60;100.00;100019.59;5256899;28;20036;-71
2022/01/05 01:49:10;;;;;;;17.95;3.28;;;;;;;0.55;100.00;100022.41;5273017;28;20040;-71
2022/01/05 01:51:41;;;;;;;14.57;2.97;;;;;;;0.54;100.00;100029.44;5257934;28;20036;-71
2022/01/05 01:54:13;;;;;;;13.07;2.92;;;;;;;0.51;100.00;100026.13;5263732;28;20086;-70
2022/01/05 01:56:47;;;;;;;11.07;2.90;;;;;;;0.50;100.00;100016.53;5258031;28;20044;-70
2022/01/05 01:59:18;;;;;;;9.32;2.40;;;;;;;0.48;100.00;100024.50;5256373;28;20040;-70
2022/01/05 02:01:49;;;;;;;13.05;2.58;;;;;;;0.49;100.00;100022.72;5261518;28;20032;-70
2022/01/05 02:04:21;;;;;;;13.73;2.92;;;;;;;0.52;100.00;100027.84;5265430;28;20048;-70
2022/01/05 02:06:52;;;;;;;16.02;2.88;;;;;;;0.48;100.00;100024.50;5260502;28;20499;-70
2022/01/05 02:09:24;;;;;;;12.82;2.60;;;;;;;0.47;100.00;100029.81;5259960;28;20059;-70
2022/01/05 02:11:55;;;;;;;10.57;2.70;;;;;;;0.52;100.00;100025.22;5259075;28;20123;-70
2022/01/05 02:14:26;;;;;;;14.02;2.42;;;;;;;0.48;100.00;100029.75;5260096;28;20021;-70
2022/01/05 02:17:02;;;;;;;17.30;2.90;;;;;;;0.43;100.00;100023.88;5260260;28;20442;-70
2022/01/05 02:19:33;;;;;;;11.70;2.65;;;;;;;0.47;100.00;100027.19;5267728;28;20024;-70
2022/01/05 02:22:05;;;;;;;11.90;2.50;;;;;;;0.48;100.00;100029.75;5263641;28;20043;-70
2022/01/05 02:24:36;;;;;;;17.08;2.50;;;;;;;0.43;100.00;100025.66;5258671;28;20470;-70
2022/01/05 02:27:08;;;;;;;12.00;2.25;;;;;;;0.40;100.00;100026.63;5263705;28;20406;-70
2022/01/05 02:29:39;;;;;;;14.85;2.53;;;;;;;0.35;100.00;100026.84;5266411;28;20118;-70
2022/01/05 02:32:11;;;;;;;14.40;2.40;;;;;;;0.28;100.00;100035.94;5257031;28;20080;-71
2022/01/05 02:34:44;;;;;;;15.30;2.47;;;;;;;0.31;100.00;100030.56;5264700;28;20367;-70
2022/01/05 02:37:15;;;;;;;12.53;2.60;;;;;;;0.26;100.00;100039.56;5262205;28;20081;-69
2022/01/05 02:39:47;;;;;;;13.75;2.70;;;;;;;0.21;100.00;100036.28;5263562;28;20752;-69
2022/01/05 02:42:28;;;;;;;10.75;2.40;;;;;;;0.19;100.00;100038.97;5264748;28;20482;-69
2022/01/05 02:44:59;;;;;;;13.18;2.60;;;;;;;0.14;100.00;100033.97;5261531;28;20032;-69
2022/01/05 02:47:31;;;;;;;12.13;2.35;;;;;;;0.18;100.00;100043.38;5269281;28;20494;-69
2022/01/05 02:50:05;;;;;;;12.23;3.22;;;;;;;0.11;100.00;100046.34;5256962;28;20032;-70
2022/01/05 02:52:36;;;;;;;17.40;3.63;;;;;;;0.06;100.00;100040.47;5258386;28;20474;-69
2022/01/05 02:55:09;;;;;;;15.50;2.85;;;;;;;0.03;100.00;100048.50;5270901;28;20032;-69
2022/01/05 02:57:40;;;;;;;13.63;2.70;;;;;;;0.06;100.00;100050.94;5260133;28;20475;-69
2022/01/05 03:00:14;;;;;;;12.27;2.80;;;;;;;-0.01;100.00;100055.66;5262543;28;20028;-69
2022/01/05 03:02:46;;;;;;;15.90;2.83;;;;;;;-0.03;100.00;100066.19;5255932;28;20025;-69
2022/01/05 03:05:19;;;;;;;14.15;3.92;;;;;;;0.02;100.00;100065.13;5266136;28;20035;-69
2022/01/05 03:07:50;;;;;;;11.68;2.83;;;;;;;-0.04;100.00;100072.38;5263048;28;20025;-69
2022/01/05 03:10:22;;;;;;;11.50;2.50;;;;;;;-0.06;100.00;100070.72;5265809;28;20076;-70
2022/01/05 03:12:53;;;;;;;15.70;3.45;;;;;;;-0.05;100.00;100072.44;5265600;28;20135;-69
2022/01/05 03:15:24;;;;;;;14.88;3.20;;;;;;;-0.07;100.00;100072.50;5265816;28;20040;-69
2022/01/05 03:17:56;;;;;;;18.42;2.63;;;;;;;-0.09;100.00;100074.34;5270311;28;20173;-69
2022/01/05 03:20:29;;;;;;;14.30;2.90;;;;;;;-0.09;100.00;100084.00;5266073;28;20024;-69
2022/01/05 03:23:03;;;;;;;14.63;3.17;;;;;;;-0.10;100.00;100090.13;5261544;28;20037;-69
2022/01/05 03:25:35;;;;;;;13.52;2.72;;;;;;;-0.11;100.00;100094.53;5265229;28;20155;-69
2022/01/05 03:28:07;;;;;;;12.57;2.80;;;;;;;-0.15;100.00;100092.97;5267721;28;20060;-69
2022/01/05 03:30:38;;;;;;;13.38;2.70;;;;;;;-0.11;100.00;100093.69;5260975;28;20029;-69
2022/01/05 03:33:12;;;;;;;12.77;2.88;;;;;;;-0.13;100.00;100093.75;5255858;28;20029;-69
2022/01/05 03:35:45;;;;;;;11.27;2.58;;;;;;;-0.19;100.00;100101.91;5265042;28;20033;-69
2022/01/05 03:38:18;;;;;;;11.63;2.63;;;;;;;-0.16;100.00;100101.75;5264219;28;20410;-69
2022/01/05 03:40:50;;;;;;;21.77;3.10;;;;;;;-0.17;100.00;100109.69;5272605;28;20501;-69
2022/01/05 03:43:21;;;;;;;15.95;2.80;;;;;;;-0.20;100.00;100110.66;5269016;28;20036;-69
2022/01/05 03:45:53;;;;;;;13.07;3.08;;;;;;;-0.21;100.00;100116.84;5268790;28;20039;-69
2022/01/05 03:48:24;;;;;;;16.88;3.00;;;;;;;-0.23;100.00;100116.91;5270020;28;20059;-69
2022/01/05 03:50:55;;;;;;;15.30;2.70;;;;;;;-0.21;100.00;100108.97;5264711;28;20036;-69
2022/01/05 03:53:27;;;;;;;15.95;2.72;;;;;;;-0.17;100.00;100112.28;5271694;28;20486;-69
2022/01/05 03:55:58;;;;;;;11.60;2.53;;;;;;;-0.15;100.00;100116.56;5262933;28;20055;-69
2022/01/05 03:58:29;;;;;;;18.25;2.50;;;;;;;-0.09;100.00;100118.91;5262348;28;20028;-69
2022/01/05 04:01:00;;;;;;;12.95;2.70;;;;;;;-0.06;100.00;100118.78;5263854;28;20036;-69
2022/01/05 04:03:32;;;;;;;14.68;3.10;;;;;;;0.04;100.00;100102.63;5270739;28;20025;-69
2022/01/05 04:06:05;;;;;;;12.70;2.53;;;;;;;0.06;100.00;100114.78;5269637;28;20095;-69
2022/01/05 04:08:36;;;;;;;14.82;2.92;;;;;;;0.10;100.00;100107.63;5266372;28;20028;-69
2022/01/05 04:11:08;;;;;;;12.20;2.75;;;;;;;0.14;100.00;100115.28;5268344;28;20406;-69
2022/01/05 04:13:39;;;;;;;15.68;3.33;;;;;;;0.15;100.00;100111.75;5262202;28;20443;-69
2022/01/05 04:16:11;;;;;;;15.60;2.60;;;;;;;0.11;100.00;100107.53;5265639;28;20039;-69
2022/01/05 04:18:42;;;;;;;16.27;2.90;;;;;;;0.09;100.00;100113.78;5270497;28;20036;-68
2022/01/05 04:21:13;;;;;;;15.52;2.92;;;;;;;0.06;100.00;100114.78;5258011;28;20035;-68
2022/01/05 04:23:44;;;;;;;13.38;2.72;;;;;;;0.07;100.00;100118.25;5260689;28;20036;-68
2022/01/05 04:26:16;;;;;;;10.27;2.97;;;;;;;0.03;100.00;100117.53;5273186;28;20032;-68
2022/01/05 04:28:47;;;;;;;10.30;2.38;;;;;;;-0.01;100.00;100123.81;5268431;28;20029;-68
2022/01/05 04:31:18;;;;;;;19.73;2.58;;;;;;;-0.01;100.00;100126.44;5261439;28;20135;-68
2022/01/05 04:33:50;;;;;;;16.27;2.90;;;;;;;-0.05;100.00;100130.97;5271573;28;20059;-68
2022/01/05 04:36:21;;;;;;;16.50;3.10;;;;;;;-0.10;100.00;100132.09;5260813;28;20035;-68
2022/01/05 04:38:53;;;;;;;19.33;3.42;;;;;;;-0.07;100.00;100132.81;5271064;28;20040;-68
2022/01/05 04:41:24;;;;;;;12.52;3.10;;;;;;;-0.07;100.00;100143.31;5264139;28;20072;-68
2022/01/05 04:43:55;;;;;;;17.40;3.35;;;;;;;-0.10;100.00;100142.56;5267078;28;20036;-69
2022/01/05 04:46:27;;;;;;;13.25;3.35;;;;;;;-0.09;100.00;100144.28;5264425;28;20025;-69
2022/01/05 04:48:58;;;;;;;13.38;2.88;;;;;;;-0.07;100.00;100143.31;5265773;28;20032;-69
2022/01/05 04:51:29;;;;;;;19.33;3.25;;;;;;;-0.04;100.00;100143.19;5269142;28;20032;-69
2022/01/05 04:54:00;;;;;;;17.63;3.70;;;;;;;0.01;100.00;100153.44;5263940;28;20032;-69
2022/01/05 04:56:32;;;;;;;21.05;3.25;;;;;;;0.07;100.00;100147.09;5261320;28;20406;-69
2022/01/05 04:59:03;;;;;;;16.25;3.20;;;;;;;0.18;100.00;100140.44;5264332;28;20028;-69
2022/01/05 05:01:34;;;;;;;16.95;3.22;;;;;;;0.21;100.00;100139.44;5266243;28;20077;-69
2022/01/05 05:04:05;;;;;;;19.70;3.85;;;;;;;0.31;100.00;100153.03;5262567;28;20041;-69
2022/01/05 05:06:37;;;;;;;18.77;3.28;;;;;;;0.39;100.00;100151.72;5268990;28;20036;-69
2022/01/05 05:09:08;;;;;;;18.55;3.22;;;;;;;0.44;100.00;100154.16;5263026;28;20037;-69
2022/01/05 05:11:39;;;;;;;14.55;2.70;;;;;;;0.48;100.00;100155.72;5268168;28;20072;-69
2022/01/05 05:14:11;;;;;;;16.20;2.80;;;;;;;0.56;100.00;100156.22;5258851;28;20028;-69
2022/01/05 05:16:43;;;;;;;18.90;3.38;;;;;;;0.58;100.00;100145.66;5264390;28;20037;-69
2022/01/05 05:19:14;;;;;;;16.05;3.03;;;;;;;0.64;100.00;100157.63;5266595;28;20028;-69
2022/01/05 05:21:45;;;;;;;18.23;2.72;;;;;;;0.73;100.00;100160.69;5266305;28;20085;-69
2022/01/05 05:24:17;;;;;;;14.05;3.15;;;;;;;0.72;100.00;100147.63;5266579;28;20038;-69
2022/01/05 05:26:48;;;;;;;15.38;2.42;;;;;;;0.72;100.00;100158.97;5265548;28;20033;-69
2022/01/05 05:29:19;;;;;;;19.67;3.28;;;;;;;0.75;100.00;100150.13;5262690;28;20059;-69
2022/01/05 05:31:51;;;;;;;16.23;3.28;;;;;;;0.76;100.00;100136.88;5254745;28;20098;-70
2022/01/05 05:34:23;;;;;;;19.00;3.20;;;;;;;0.78;100.00;100136.81;5260907;28;20039;-70
2022/01/05 05:36:54;;;;;;;14.23;3.00;;;;;;;0.80;100.00;100140.22;5268968;28;20037;-69
2022/01/05 05:39:25;;;;;;;21.42;3.55;;;;;;;0.81;100.00;100135.84;5271583;28;20029;-70
2022/01/05 05:41:56;;;;;;;17.65;3.45;;;;;;;0.85;100.00;100146.13;5273352;28;20032;-69
2022/01/05 05:44:28;;;;;;;13.73;3.15;;;;;;;0.84;100.00;100143.56;5258923;28;20039;-69
2022/01/05 05:46:59;;;;;;;13.68;2.92;;;;;;;0.88;100.00;100153.88;5262268;28;20066;-69
2022/01/05 05:49:30;;;;;;;17.23;3.35;;;;;;;0.90;100.00;100157.28;5267986;28;20493;-69
2022/01/05 05:52:02;;;;;;;18.42;3.05;;;;;;;0.90;100.00;100157.28;5271599;28;20043;-70
2022/01/05 05:54:33;;;;;;;17.83;4.03;;;;;;;0.93;100.00;100161.50;5262336;28;20068;-70
2022/01/05 05:57:05;;;;;;;15.70;3.45;;;;;;;0.97;100.00;100166.53;5258791;28;20471;-69
2022/01/05 05:59:36;;;;;;;18.80;3.65;;;;;;;0.98;100.00;100170.03;5263331;28;20024;-69
2022/01/05 06:02:07;;;;;;;14.88;3.55;;;;;;;0.99;100.00;100166.47;5269648;28;20047;-70
2022/01/05 06:04:38;;;;;;;14.43;3.15;;;;;;;0.99;100.00;100169.09;5258346;28;20040;-69
2022/01/05 06:07:10;;;;;;;13.75;3.63;;;;;;;1.06;100.00;100174.94;5262909;28;20481;-69
2022/01/05 06:09:41;;;;;;;19.52;3.03;;;;;;;1.08;100.00;100170.44;5269103;28;20043;-69
2022/01/05 06:12:12;;;;;;;19.02;3.50;;;;;;;1.07;100.00;100169.56;5269708;28;20071;-69
2022/01/05 06:14:44;;;;;;;18.13;3.78;;;;;;;1.07;100.00;100173.97;5264040;28;20043;-69
2022/01/05 06:17:16;;;;;;;17.35;3.35;;;;;;;1.06;100.00;100167.03;5271291;28;20044;-69
2022/01/05 06:19:47;;;;;;;13.73;3.00;;;;;;;1.00;100.00;100172.56;5265295;28;20029;-69
2022/01/05 06:22:19;;;;;;;15.98;3.30;;;;;;;1.00;100.00;100175.19;5263968;28;20760;-69
2022/01/05 06:24:50;;;;;;;12.10;3.03;;;;;;;0.97;100.00;100177.03;5257329;28;20035;-69
2022/01/05 06:27:21;;;;;;;12.45;3.53;;;;;;;1.00;100.00;100188.31;5270002;28;20525;-69
2022/01/05 06:29:52;;;;;;;21.30;3.60;;;;;;;0.98;100.00;100180.53;5259454;28;20040;-69
2022/01/05 06:32:24;;;;;;;17.85;4.22;;;;;;;1.05;100.00;100175.84;5267725;28;20447;-69
2022/01/05 06:34:55;;;;;;;17.70;3.65;;;;;;;1.01;100.00;100196.13;5263586;28;20037;-69
2022/01/05 06:37:27;;;;;;;19.73;4.07;;;;;;;1.06;100.00;100193.31;5269283;28;20060;-69
2022/01/05 06:39:58;;;;;;;12.35;3.80;;;;;;;1.10;100.00;100202.75;5263704;28;20031;-69
2022/01/05 06:42:29;;;;;;;18.27;4.10;;;;;;;1.10;100.00;100197.50;5259943;28;20593;-69
2022/01/05 06:45:00;;;;;;;16.90;3.80;;;;;;;1.10;100.00;100208.00;5267519;28;20451;-69
2022/01/05 06:47:32;;;;;;;18.42;3.92;;;;;;;1.17;100.00;100199.75;5268783;28;20033;-69
2022/01/05 06:50:03;;;;;;;15.13;3.58;;;;;;;1.16;100.00;100220.84;5267808;28;20036;-69
2022/01/05 06:52:35;;;;;;;14.30;4.00;;;;;;;1.23;100.00;100219.63;5272944;28;20039;-69
2022/01/05 06:55:06;;;;;;;19.75;4.80;;;;;;;1.24;100.00;100218.69;5269931;28;20686;-69
2022/01/05 06:57:40;;;;;;;22.92;4.03;;;;;;;1.24;100.00;100215.22;5270118;28;20381;-69
2022/01/05 07:00:12;;;;;;;18.30;4.35;;;;;;;1.25;100.00;100222.19;5269170;28;20047;-69
2022/01/05 07:02:43;;;;;;;17.35;4.43;;;;;;;1.32;100.00;100234.97;5268474;28;20029;-71
2022/01/05 07:05:15;;;;;;;21.40;4.20;;;;;;;1.26;100.00;100240.47;5267280;28;20494;-69
2022/01/05 07:07:46;;;;;;;26.50;5.07;;;;;;;1.25;100.00;100241.44;5261435;28;20029;-70
2022/01/05 07:10:18;;;;;;;17.02;3.75;;;;;;;1.28;100.00;100251.78;5268523;28;20522;-70
2022/01/05 07:12:49;;;;;;;18.65;4.10;;;;;;;1.36;100.00;100247.03;5265140;28;20079;-69
2022/01/05 07:15:21;;;;;;;18.38;4.38;;;;;;;1.35;100.00;100244.47;5271534;28;20842;-69
2022/01/05 07:17:52;;;;;;;19.67;4.18;;;;;;;1.33;100.00;100252.41;5269601;28;20028;-70
2022/01/05 07:20:23;;;;;;;20.80;4.00;;;;;;;1.40;100.00;100247.72;5267785;28;20153;-70
2022/01/05 07:22:55;;;;;;;19.17;4.18;;;;;;;1.41;100.00;100245.94;5274539;28;20403;-70
2022/01/05 07:25:26;;;;;;;19.05;4.20;;;;;;;1.40;100.00;100254.75;5272976;28;20039;-70
2022/01/05 07:27:57;;;;;;;18.35;4.30;;;;;;;1.43;100.00;100251.97;5272135;28;20059;-70
2022/01/05 07:30:29;;;;;;;14.75;3.60;;;;;;;1.41;100.00;100262.56;5269057;28;20040;-70
2022/01/05 07:33:00;;;;;;;20.13;4.00;;;;;;;1.46;100.00;100254.44;5271873;28;20074;-70
2022/01/05 07:35:31;;;;;;;18.88;4.32;;;;;;;1.52;100.00;100264.69;5274127;28;20062;-70
2022/01/05 07:38:03;;;;;;;18.63;3.88;;;;;;;1.50;100.00;100264.75;5263939;28;20037;-70
2022/01/05 07:40:34;;;;;;;16.10;3.80;;;;;;;1.56;100.00;100274.13;5266267;28;20497;-70
2022/01/05 07:43:06;;;;;;;18.23;3.70;;;;;;;1.58;100.00;100269.63;5263266;28;20039;-70
2022/01/05 07:45:38;;;;;;;17.58;3.60;;;;;;;1.60;100.00;100265.16;5268526;28;20030;-70
2022/01/05 07:48:09;;;;;;;20.70;3.90;;;;;;;1.65;100.00;100273.69;5265194;28;20020;-70
2022/01/05 07:50:41;;;;;;;15.35;3.58;;;;;;;1.65;100.00;100271.06;5272797;28;20052;-70
2022/01/05 07:53:12;;;;;;;16.35;3.72;;;;;;;1.72;100.00;100285.59;5272140;28;20037;-70
2022/01/05 07:55:43;;;;;;;17.08;3.70;;;;;;;1.72;100.00;100290.84;5273157;28;20147;-70
2022/01/05 07:58:15;;;;;;;18.08;4.32;;;;;;;1.76;100.00;100289.78;5267489;28;20478;-70
2022/01/05 08:00:46;;;;;;;21.08;4.20;;;;;;;1.84;100.00;100291.16;5264546;28;20401;-70
2022/01/05 08:03:18;;;;;;;23.98;4.78;;;;;;;1.88;100.00;100298.84;5272209;28;20060;-71
2022/01/05 08:05:50;;;;;;;17.42;4.18;;;;;;;1.94;100.00;100302.97;5260699;28;20129;-71
2022/01/05 08:08:21;;;;;;;20.00;3.95;;;;;;;2.00;100.00;100310.53;5258249;28;20056;-71
2022/01/05 08:10:53;;;;;;;15.55;3.67;;;;;;;2.07;100.00;100317.22;5265166;28;20558;-70
2022/01/05 08:13:24;;;;;;;19.00;3.45;;;;;;;2.13;100.00;100314.28;5266258;28;20075;-70
2022/01/05 08:15:55;;;;;;;14.32;3.40;;;;;;;2.19;100.00;100325.41;5268100;28;20052;-70
2022/01/05 08:18:27;;;;;;;21.20;3.80;;;;;;;2.25;100.00;100322.47;5269508;28;20035;-71
2022/01/05 08:20:58;;;;;;;14.40;3.42;;;;;;;2.33;100.00;100318.50;5269858;28;20030;-71
2022/01/05 08:23:29;;;;;;;17.00;4.45;;;;;;;2.39;100.00;100324.41;5272845;28;20234;-70
2022/01/05 08:26:01;;;;;;;18.02;3.75;;;;;;;2.43;100.00;100318.91;5275490;28;20024;-70
2022/01/05 08:28:32;;;;;;;15.10;2.95;;;;;;;2.48;100.00;100329.22;5274481;28;20440;-71
2022/01/05 08:31:03;;;;;;;18.27;3.63;;;;;;;2.48;100.00;100324.78;5273028;28;20052;-70
2022/01/05 08:33:35;;;;;;;14.00;3.20;;;;;;;2.54;100.00;100337.63;5270881;28;20032;-70
2022/01/05 08:36:06;;;;;;;16.92;3.25;;;;;;;2.58;100.00;100326.94;5271347;28;20094;-70
2022/01/05 08:38:37;;;;;;;15.05;3.00;;;;;;;2.65;100.00;100323.91;5273049;28;20479;-71
2022/01/05 08:41:09;;;;;;;20.42;3.53;;;;;;;2.69;100.00;100329.88;5276148;28;20029;-71
2022/01/05 08:43:40;;;;;;;13.25;2.97;;;;;;;2.79;100.00;100328.47;5270983;28;20031;-71
2022/01/05 08:46:11;;;;;;;14.85;3.00;;;;;;;2.88;100.00;100327.97;5269161;28;20081;-71
2022/01/05 08:48:43;;;;;;;14.07;3.10;;;;;;;2.88;100.00;100327.97;5276400;28;20024;-71
2022/01/05 08:51:14;;;;;;;12.35;2.70;;;;;;;2.93;100.00;100323.31;5272219;28;20052;-70
2022/01/05 08:53:45;;;;;;;18.77;3.38;;;;;;;2.93;99.75;100336.50;5273952;28;20107;-71
2022/01/05 08:56:17;;;;;;;17.25;4.07;;;;;;;2.87;100.00;100331.53;5274309;28;20390;-70
2022/01/05 08:58:48;;;;;;;13.95;3.50;;;;;;;2.78;100.00;100321.50;5272558;28;20413;-70
2022/01/05 09:01:19;;;;;;;18.13;3.30;;;;;;;2.77;100.00;100329.47;5273610;28;20028;-71
2022/01/05 09:03:52;;;;;;;19.98;3.72;;;;;;;2.78;100.00;100339.94;5271690;28;20032;-70
2022/01/05 09:06:23;;;;;;;20.02;3.30;;;;;;;2.88;100.00;100341.16;5276056;28;20032;-71
2022/01/05 09:08:54;;;;;;;17.25;3.13;;;;;;;2.99;100.00;100347.63;5273237;28;20587;-70
2022/01/05 09:11:27;;;;;;;14.35;3.25;;;;;;;3.09;100.00;100348.88;5274396;28;20040;-71
2022/01/05 09:13:58;;;;;;;13.82;3.63;;;;;;;3.17;100.00;100351.94;5272751;28;20043;-71
2022/01/05 09:16:30;;;;;;;15.98;3.10;;;;;;;3.23;100.00;100356.88;5269756;28;20036;-71
2022/01/05 09:19:03;;;;;;;17.38;2.88;;;;;;;3.32;98.33;100363.44;5276754;28;20059;-70
2022/01/05 09:21:34;;;;;;;11.93;2.78;;;;;;;3.37;97.84;100347.38;5273565;28;20056;-71
2022/01/05 09:24:06;;;;;;;18.55;2.80;;;;;;;3.40;99.55;100349.84;5270668;28;20071;-71
2022/01/05 09:26:37;;;;;;;17.92;3.05;;;;;;;3.46;97.79;100352.97;5276601;28;20040;-70
2022/01/05 09:29:08;;;;;;;19.08;3.58;;;;;;;3.51;98.29;100358.03;5274396;28;20111;-70
2022/01/05 09:31:40;;;;;;;15.38;3.25;;;;;;;3.58;97.79;100366.44;5274124;28;20032;-71
2022/01/05 09:34:11;;;;;;;17.55;3.55;;;;;;;3.64;97.22;100384.56;5275500;28;20119;-70
2022/01/05 09:36:48;;;;;;;18.77;2.85;;;;;;;3.67;98.10;100374.69;5274577;28;20502;-70
2022/01/05 09:42:09;;;;;;;16.92;2.50;;;;;;;3.60;98.36;100370.69;5274294;28;20063;-71
2022/01/05 09:44:45;;;;;;;14.35;2.88;;;;;;;3.56;99.63;100389.41;5274396;28;20514;-71
2022/01/05 09:47:48;;;;;;;14.88;3.13;;;;;;;3.53;97.72;100409.75;5275570;28;20115;-71
2022/01/05 09:50:21;;;;;;;18.25;2.80;;;;;;;3.52;100.00;100404.53;5272429;28;20494;-71
2022/01/05 09:52:54;;;;;;;14.90;3.67;;;;;;;3.52;100.00;100410.66;5275115;28;20054;-71
2022/01/05 09:55:26;;;;;;;12.60;2.60;;;;;;;3.53;100.00;100416.81;5274430;28;20116;-71
2022/01/05 09:57:57;;;;;;;20.80;3.10;;;;;;;3.54;100.00;100406.16;5273134;28;20025;-71
2022/01/05 10:00:29;;;;;;;14.70;2.60;;;;;;;3.52;100.00;100401.91;5272677;28;20036;-71
2022/01/05 10:03:00;;;;;;;19.73;2.72;;;;;;;3.53;100.00;100404.47;5275190;28;20119;-71
2022/01/05 10:05:31;;;;;;;19.90;3.45;;;;;;;3.57;100.00;100405.16;5272918;28;20047;-71
2022/01/05 10:08:05;;;;;;;20.25;3.28;;;;;;;3.59;100.00;100405.91;5275732;28;20039;-71
2022/01/05 10:10:37;;;;;;;15.82;2.70;;;;;;;3.63;100.00;100404.81;5274816;28;20072;-71
2022/01/05 10:13:08;;;;;;;17.25;3.38;;;;;;;3.67;100.00;100411.63;5272463;28;20139;-71
2022/01/05 10:15:40;;;;;;;22.33;3.28;;;;;;;3.68;100.00;100401.91;5272812;28;20028;-71
2022/01/05 10:18:16;;;;;;;19.33;3.22;;;;;;;3.73;99.00;100407.78;5273658;28;20390;-71
2022/01/05 10:21:02;;;;;;;18.83;3.45;;;;;;;3.75;100.00;100424.38;5270737;28;20051;-71
2022/01/05 10:23:37;;;;;;;14.93;3.05;;;;;;;3.78;100.00;100418.97;5273169;28;20020;-71
2022/01/05 10:26:36;;;;;;;20.92;3.30;;;;;;;3.86;100.00;100427.28;5273073;28;20386;-71
2022/01/05 10:29:16;;;;;;;18.55;3.20;;;;;;;4.02;100.00;100426.44;5273221;28;20043;-71
2022/01/05 10:31:55;;;;;;;18.63;3.30;;;;;;;4.13;99.81;100411.69;5272902;28;20075;-71
2022/01/05 10:34:29;;;;;;;18.70;3.90;;;;;;;4.27;97.60;100423.25;5273083;28;20119;-71
2022/01/05 10:37:05;;;;;;;17.58;3.30;;;;;;;4.35;96.49;100428.09;5272552;28;20027;-71
2022/01/05 10:39:40;;;;;;;14.40;2.90;;;;;;;4.37;94.05;100424.44;5274176;28;20040;-71
2022/01/05 10:42:13;;;;;;;21.30;3.78;;;;;;;4.39;95.01;100419.94;5273127;28;20382;-71
2022/01/05 10:44:50;;;;;;;19.83;3.50;;;;;;;4.35;93.72;100421.03;5273282;28;20024;-71
2022/01/05 10:47:22;;;;;;;17.23;3.05;;;;;;;4.36;94.89;100430.66;5271754;28;20032;-71
2022/01/05 10:49:54;;;;;;;17.38;3.17;;;;;;;4.33;95.40;100430.81;5274154;28;20486;-71
2022/01/05 10:52:31;;;;;;;19.40;4.13;;;;;;;4.39;93.59;100451.63;5274701;28;20025;-71
2022/01/05 10:55:14;;;;;;;17.63;3.30;;;;;;;4.40;93.37;100444.56;5272433;28;20031;-71
2022/01/05 10:58:04;;;;;;;16.95;3.35;;;;;;;4.42;94.77;100440.03;5274738;28;20043;-71
2022/01/05 11:00:45;;;;;;;16.95;3.03;;;;;;;4.52;92.71;100457.03;5274311;28;20020;-71
2022/01/05 11:03:35;;;;;;;17.35;2.78;;;;;;;4.67;93.46;100458.78;5270964;28;20032;-71
2022/01/05 11:06:09;;;;;;;16.00;2.97;;;;;;;4.79;90.84;100464.31;5267709;28;20561;-71
2022/01/05 11:09:00;;;;;;;13.48;2.88;;;;;;;4.83;93.90;100484.31;5271537;28;20032;-70
2022/01/05 11:11:42;;;;;;;13.90;2.90;;;;;;;4.84;92.27;100473.66;5267661;28;20055;-70
2022/01/05 11:14:30;;;;;;;14.45;2.60;;;;;;;4.89;91.92;100468.97;5265206;28;20466;-70
2022/01/05 11:17:04;;;;;;;15.27;2.63;;;;;;;4.98;91.21;100501.94;5268748;28;20108;-71
2022/01/05 11:19:39;;;;;;;15.73;3.88;;;;;;;4.97;90.76;100481.75;5272162;28;20028;-71
2022/01/05 11:22:13;;;;;;;16.48;3.28;;;;;;;4.89;91.93;100476.91;5270913;28;20025;-71
2022/01/05 11:24:45;;;;;;;;;;;;;;;4.84;90.69;100478.13;5273927;28;20117;-70
2022/01/05 11:27:28;;;;;;;15.30;2.78;;;;;;;4.80;92.16;100472.16;5270806;28;19931;-70
2022/01/05 11:30:00;;;;;;;20.27;4.25;;;;;;;4.80;91.28;100474.78;5263666;28;20085;-70
2022/01/05 11:32:34;;;;;;;13.00;3.03;;;;;;;4.78;92.49;100489.91;5269558;28;20043;-70
2022/01/05 11:35:07;;;;;;;19.15;3.17;;;;;;;4.74;91.63;100483.09;5269276;28;20375;-71
2022/01/05 11:37:38;;;;;;;17.80;3.35;;;;;;;4.70;92.11;100508.84;5271725;28;20020;-71
2022/01/05 11:40:10;;;;;;;15.77;2.90;;;;;;;4.73;91.71;100502.50;5271432;28;20063;-70
2022/01/05 11:42:42;;;;;;;17.98;3.03;;;;;;;4.73;91.20;100510.44;5271831;28;20505;-71
2022/01/05 11:45:27;;;;;;;19.08;3.97;;;;;;;4.74;91.74;100493.66;5269428;28;20028;-71